Time;durP1;ratioP1;P1;durP2;ratioP2;P2;SDS_P1;SDS_P2;PMS_P1;PMS_P2;Temp;Humidity;BMP_temperature;BMP_pressure;BME280_temperature;BME280_humidity;BME280_pressure;Samples;Min_cycle;Max_cycle;Signal;HPM_P1;HPM_P2
2022/12/04 00:00:13;;;;;;;10.13;7.50;;;20.60;56.80;;;;;;5058304;27;87144;-85
2022/12/04 00:02:40;;;;;;;10.50;7.32;;;20.70;57.00;;;;;;5060204;27;87949;-85
2022/12/04 00:05:07;;;;;;;9.20;6.82;;;20.60;56.90;;;;;;5058252;27;87337;-85
2022/12/04 00:07:33;;;;;;;9.32;6.95;;;20.60;56.90;;;;;;5061184;27;88001;-85
2022/12/04 00:09:59;;;;;;;9.80;7.38;;;20.60;57.00;;;;;;5062522;27;87167;-86
2022/12/04 00:12:24;;;;;;;8.13;7.28;;;20.50;56.90;;;;;;5062834;27;87741;-85
2022/12/04 00:14:50;;;;;;;9.88;7.43;;;20.50;56.80;;;;;;5044226;27;89018;-86
2022/12/04 00:17:16;;;;;;;8.07;6.78;;;20.50;56.90;;;;;;5062379;27;87469;-85
2022/12/04 00:19:41;;;;;;;11.40;6.63;;;20.50;56.80;;;;;;5061165;27;88222;-85
2022/12/04 00:22:07;;;;;;;9.90;7.13;;;20.50;56.90;;;;;;5063797;27;87403;-85
2022/12/04 00:24:33;;;;;;;9.80;7.25;;;20.50;56.90;;;;;;5062045;27;87578;-86
2022/12/04 00:27:01;;;;;;;8.95;6.90;;;20.50;56.90;;;;;;5061806;27;90625;-85
2022/12/04 00:29:27;;;;;;;8.88;6.80;;;20.40;56.90;;;;;;5061042;27;89434;-85
2022/12/04 00:31:52;;;;;;;8.63;6.72;;;20.40;56.90;;;;;;5062068;27;87306;-85
2022/12/04 00:34:18;;;;;;;8.50;7.18;;;20.40;56.80;;;;;;5061186;27;87538;-85
2022/12/04 00:36:43;;;;;;;9.48;7.10;;;20.40;56.90;;;;;;5062474;27;88514;-84
2022/12/04 00:39:09;;;;;;;12.50;7.10;;;20.40;56.90;;;;;;5060693;27;88330;-85
2022/12/04 00:41:35;;;;;;;8.02;6.75;;;20.40;57.00;;;;;;5063520;27;88049;-85
2022/12/04 00:44:02;;;;;;;8.40;7.03;;;20.30;56.90;;;;;;5063315;27;87887;-85
2022/12/04 00:46:28;;;;;;;11.10;7.40;;;20.30;56.90;;;;;;5062635;27;89209;-85
2022/12/04 00:48:54;;;;;;;9.05;6.75;;;20.30;56.90;;;;;;5063091;27;91996;-85
2022/12/04 00:51:23;;;;;;;8.00;6.82;;;20.30;56.90;;;;;;5061568;27;88089;-84
2022/12/04 00:53:50;;;;;;;8.00;7.05;;;20.30;56.80;;;;;;5061260;27;87343;-86
2022/12/04 00:56:23;;;;;;;9.30;7.32;;;20.30;56.90;;;;;;5060975;27;88304;-85
2022/12/04 00:58:52;;;;;;;8.57;6.90;;;20.20;56.60;;;;;;5061492;27;90256;-85
2022/12/04 01:01:18;;;;;;;;;;;20.30;56.70;;;;;;5063348;27;87090;-85
2022/12/04 01:03:45;;;;;;;9.00;6.53;;;20.20;56.70;;;;;;5064798;27;87259;-85
2022/12/04 01:06:23;;;;;;;8.23;6.75;;;20.20;56.50;;;;;;5064894;27;88369;-86
2022/12/04 01:08:53;;;;;;;11.07;8.02;;;20.20;56.60;;;;;;5064481;27;87991;-85
2022/12/04 01:11:20;;;;;;;7.68;6.55;;;20.20;56.60;;;;;;5065936;27;87270;-85
2022/12/04 01:13:46;;;;;;;8.82;7.22;;;20.20;56.50;;;;;;5064478;27;89167;-85
2022/12/04 01:16:20;;;;;;;7.93;6.53;;;20.20;56.50;;;;;;5065220;27;89079;-84
2022/12/04 01:18:46;;;;;;;9.88;7.30;;;20.10;56.60;;;;;;5064974;27;89384;-86
2022/12/04 01:21:12;;;;;;;8.98;7.30;;;20.10;56.60;;;;;;5063562;27;87489;-85
2022/12/04 01:23:37;;;;;;;9.13;7.88;;;20.10;56.60;;;;;;5065164;27;87733;-85
2022/12/04 01:26:03;;;;;;;10.48;7.85;;;20.10;56.70;;;;;;5064305;27;88541;-85
2022/12/04 01:28:29;;;;;;;9.25;7.22;;;20.10;56.60;;;;;;5065300;27;87380;-85
2022/12/04 01:31:12;;;;;;;7.53;6.35;;;20.00;56.50;;;;;;5067333;27;87346;-85
2022/12/04 01:33:38;;;;;;;8.20;6.80;;;20.00;56.40;;;;;;5065286;27;87339;-85
2022/12/04 01:36:07;;;;;;;7.97;7.10;;;20.00;56.60;;;;;;5066418;27;88711;-85
2022/12/04 01:38:33;;;;;;;9.25;6.80;;;20.00;56.70;;;;;;5065408;27;88322;-85
2022/12/04 01:40:59;;;;;;;7.97;6.15;;;20.00;56.50;;;;;;5065346;27;88386;-86
2022/12/04 01:43:27;;;;;;;8.13;6.88;;;20.00;56.50;;;;;;5066595;27;87411;-86
2022/12/04 01:45:57;;;;;;;8.38;7.18;;;20.00;56.40;;;;;;5064845;27;92200;-85
2022/12/04 01:48:36;;;;;;;9.77;6.55;;;20.00;56.50;;;;;;5064589;27;88129;-85
2022/12/04 01:51:02;;;;;;;8.48;6.75;;;20.00;56.40;;;;;;5065993;27;86868;-86
2022/12/04 01:53:29;;;;;;;7.75;6.95;;;19.90;56.50;;;;;;5066330;27;87507;-86
2022/12/04 01:55:55;;;;;;;9.18;6.70;;;19.90;56.10;;;;;;5065327;27;89056;-86
2022/12/04 01:58:28;;;;;;;8.27;6.82;;;19.90;56.20;;;;;;5066134;27;89017;-85
2022/12/04 02:00:57;;;;;;;9.98;7.20;;;19.90;56.10;;;;;;5064795;27;87071;-86
2022/12/04 02:03:23;;;;;;;9.88;7.25;;;19.90;56.10;;;;;;5065404;27;87237;-85
2022/12/04 02:05:48;;;;;;;9.85;7.30;;;19.90;56.10;;;;;;5063833;27;90028;-86
2022/12/04 02:08:14;;;;;;;8.05;6.97;;;19.90;56.10;;;;;;5065883;27;89176;-85
2022/12/04 02:10:54;;;;;;;8.30;6.88;;;19.80;56.10;;;;;;5064524;27;87003;-85
2022/12/04 02:13:24;;;;;;;;;;;19.90;56.00;;;;;;5065584;27;87518;-86
2022/12/04 02:15:56;;;;;;;8.30;6.72;;;19.90;56.00;;;;;;5066593;27;87593;-86
2022/12/04 02:18:36;;;;;;;7.47;6.65;;;19.90;56.10;;;;;;5064661;27;87438;-85
2022/12/04 02:21:10;;;;;;;9.27;6.97;;;19.90;56.20;;;;;;5064929;27;87295;-85
2022/12/04 02:23:49;;;;;;;8.95;7.40;;;19.80;56.10;;;;;;5063602;27;86959;-85
2022/12/04 02:26:39;;;;;;;8.80;6.87;;;19.80;56.10;;;;;;5065422;27;89054;-85
2022/12/04 02:29:08;;;;;;;7.93;7.10;;;19.80;56.00;;;;;;5064836;27;88859;-85
2022/12/04 02:31:54;;;;;;;8.93;7.05;;;19.80;56.20;;;;;;5064187;27;89016;-86
2022/12/04 02:34:28;;;;;;;8.65;6.82;;;19.80;56.00;;;;;;5063789;27;86968;-85
2022/12/04 02:37:07;;;;;;;8.63;6.72;;;19.80;56.00;;;;;;5064347;27;92463;-85
2022/12/04 02:39:53;;;;;;;7.95;6.88;;;19.70;55.90;;;;;;5063910;27;90929;-85
2022/12/04 02:42:37;;;;;;;8.18;6.90;;;19.70;55.90;;;;;;5064088;27;87434;-85
2022/12/04 02:45:10;;;;;;;8.65;7.00;;;19.70;55.90;;;;;;5062204;27;87862;-85
2022/12/04 02:47:40;;;;;;;8.50;6.95;;;19.70;55.90;;;;;;5063332;27;87500;-85
2022/12/04 02:50:15;;;;;;;7.55;6.75;;;19.70;55.80;;;;;;5062614;27;87025;-85
2022/12/04 02:52:59;;;;;;;8.50;6.72;;;19.70;56.00;;;;;;5062678;27;87518;-86
2022/12/04 02:55:40;;;;;;;7.95;6.57;;;19.60;55.80;;;;;;5066038;27;87604;-85
2022/12/04 02:58:12;;;;;;;8.30;7.43;;;19.60;55.90;;;;;;5062952;27;93945;-85
2022/12/04 03:00:40;;;;;;;8.10;7.15;;;19.70;56.10;;;;;;5063558;27;89703;-85
2022/12/04 03:03:12;;;;;;;9.87;7.17;;;19.60;56.10;;;;;;5064892;27;87514;-85
2022/12/04 03:05:43;;;;;;;7.72;6.90;;;19.60;56.00;;;;;;5061978;27;87516;-86
2022/12/04 03:08:18;;;;;;;7.75;6.63;;;19.60;56.10;;;;;;5064237;27;88066;-85
2022/12/04 03:10:48;;;;;;;8.57;7.40;;;19.60;56.00;;;;;;5063568;27;88891;-85
2022/12/04 03:13:22;;;;;;;9.32;6.97;;;19.60;56.00;;;;;;5065399;27;87398;-85
2022/12/04 03:16:03;;;;;;;7.57;6.10;;;19.60;56.00;;;;;;5063626;27;87384;-86
2022/12/04 03:18:36;;;;;;;8.38;6.97;;;19.50;55.90;;;;;;5063311;27;88252;-85
2022/12/04 03:21:10;;;;;;;8.00;6.72;;;19.50;55.90;;;;;;5061362;27;87393;-85
2022/12/04 03:23:50;;;;;;;8.38;6.93;;;19.50;56.00;;;;;;5043653;27;88430;-85
2022/12/04 03:26:31;;;;;;;8.65;6.82;;;19.50;56.00;;;;;;5062409;27;87273;-85
2022/12/04 03:29:05;;;;;;;8.20;6.88;;;19.50;56.10;;;;;;5063323;27;88192;-86
2022/12/04 03:32:01;;;;;;;8.10;6.95;;;19.50;55.80;;;;;;5063988;27;87720;-86
2022/12/04 03:34:57;;;;;;;7.82;7.00;;;19.50;56.00;;;;;;5064902;27;87003;-85
2022/12/04 03:37:43;;;;;;;8.68;7.10;;;19.50;56.00;;;;;;5062209;27;89570;-85
2022/12/04 03:40:35;;;;;;;7.57;6.78;;;19.50;56.00;;;;;;5062791;27;93497;-84
2022/12/04 03:43:22;;;;;;;9.35;7.18;;;19.50;55.80;;;;;;4951373;28;92055;-85
2022/12/04 03:46:03;;;;;;;8.93;6.97;;;19.40;55.90;;;;;;4951090;28;87153;-85
2022/12/04 03:48:39;;;;;;;8.15;7.32;;;19.40;55.80;;;;;;4951412;28;87477;-85
2022/12/04 03:51:21;;;;;;;8.20;7.30;;;19.40;55.80;;;;;;4950394;28;89055;-85
2022/12/04 03:54:09;;;;;;;8.40;7.10;;;19.40;55.70;;;;;;4950857;28;88982;-85
2022/12/04 03:56:42;;;;;;;8.40;7.10;;;19.40;55.60;;;;;;4951166;28;87637;-85
2022/12/04 03:59:33;;;;;;;7.88;6.47;;;19.40;55.60;;;;;;4951525;28;87339;-85
2022/12/04 04:02:01;;;;;;;8.13;7.05;;;19.40;55.80;;;;;;4951340;28;88324;-85
2022/12/04 04:04:32;;;;;;;7.83;7.00;;;19.40;56.10;;;;;;4950931;28;88229;-85
2022/12/04 04:07:08;;;;;;;9.27;6.88;;;19.40;56.20;;;;;;4950862;28;87492;-85
2022/12/04 04:09:37;;;;;;;8.27;6.57;;;19.40;56.10;;;;;;4950383;28;89262;-85
2022/12/04 04:12:13;;;;;;;8.65;7.63;;;19.30;56.80;;;;;;4949829;28;89051;-85
2022/12/04 04:25:57;;;;;;;8.10;7.00;;;19.30;56.20;;;;;;5062418;27;87561;-85
2022/12/04 04:28:36;;;;;;;7.57;6.78;;;19.30;56.00;;;;;;5063106;27;87070;-85
2022/12/04 04:31:09;;;;;;;8.38;7.40;;;19.30;56.20;;;;;;5062598;27;91665;-85
2022/12/04 04:33:42;;;;;;;7.88;6.95;;;19.20;55.90;;;;;;5063013;27;88261;-85
2022/12/04 04:36:23;;;;;;;9.05;7.07;;;19.20;56.10;;;;;;5063214;27;88218;-85
2022/12/04 04:39:06;;;;;;;8.82;7.05;;;19.20;56.20;;;;;;5065698;27;87215;-85
2022/12/04 04:41:40;;;;;;;7.57;6.70;;;19.20;56.10;;;;;;5066147;27;87596;-85
2022/12/04 04:44:28;;;;;;;8.27;7.32;;;19.20;56.10;;;;;;5065980;27;89542;-85
2022/12/04 04:47:00;;;;;;;8.63;7.50;;;19.20;56.00;;;;;;5067027;27;87555;-85
2022/12/04 04:49:29;;;;;;;7.30;6.47;;;19.20;56.00;;;;;;5066753;27;87624;-86
2022/12/04 04:51:56;;;;;;;8.87;7.67;;;19.20;55.80;;;;;;5065122;27;91418;-85
2022/12/04 04:54:22;;;;;;;8.57;7.22;;;19.20;56.00;;;;;;5066221;27;87386;-85
2022/12/04 04:56:48;;;;;;;7.82;6.93;;;19.10;56.00;;;;;;5066106;27;86976;-86
2022/12/04 04:59:14;;;;;;;7.75;6.95;;;19.10;56.00;;;;;;5065698;27;87675;-85
2022/12/04 05:01:42;;;;;;;9.07;7.20;;;19.20;56.20;;;;;;5066361;27;87315;-85
2022/12/04 05:04:09;;;;;;;8.60;7.55;;;19.10;56.00;;;;;;5065522;27;87688;-86
2022/12/04 05:06:35;;;;;;;8.27;7.38;;;19.10;56.20;;;;;;5064988;27;87532;-85
2022/12/04 05:09:01;;;;;;;7.68;6.88;;;19.10;56.10;;;;;;5066259;27;88558;-85
2022/12/04 05:11:26;;;;;;;8.70;7.28;;;19.10;56.00;;;;;;5064545;27;87610;-85
2022/12/04 05:13:52;;;;;;;8.35;6.38;;;19.10;56.10;;;;;;5065151;27;87508;-86
2022/12/04 05:16:18;;;;;;;8.10;7.30;;;19.10;56.00;;;;;;5048349;27;90537;-86
2022/12/04 05:19:52;;;;;;;8.60;7.05;;;19.10;56.20;;;;;;5064776;27;86917;-85
2022/12/04 05:21:29;;;;;;;8.98;7.50;;;19.10;56.10;;;;;;5063643;27;87976;-84
2022/12/04 05:23:55;;;;;;;7.72;6.93;;;19.10;56.20;;;;;;5066073;27;88604;-85
2022/12/04 05:26:20;;;;;;;8.50;7.43;;;19.10;56.10;;;;;;5065623;27;88669;-85
2022/12/04 05:28:46;;;;;;;8.63;7.53;;;19.10;56.10;;;;;;5065259;27;87041;-85
2022/12/04 05:31:11;;;;;;;7.97;7.15;;;19.10;56.10;;;;;;5066732;27;87614;-85
2022/12/04 05:33:37;;;;;;;8.07;7.22;;;19.10;56.00;;;;;;5064077;27;89254;-85
2022/12/04 05:36:06;;;;;;;8.07;7.15;;;19.10;56.00;;;;;;5048200;27;90190;-85
2022/12/04 05:38:32;;;;;;;7.90;6.90;;;19.10;56.00;;;;;;5065227;27;87654;-86
2022/12/04 05:40:59;;;;;;;9.43;7.07;;;19.00;56.10;;;;;;5064851;27;87310;-85
2022/12/04 05:43:24;;;;;;;8.88;7.00;;;19.10;56.20;;;;;;5065289;27;87622;-86
2022/12/04 05:45:50;;;;;;;8.05;7.20;;;19.00;56.10;;;;;;5065604;27;87793;-85
2022/12/04 05:48:16;;;;;;;8.00;7.10;;;19.00;56.30;;;;;;5066444;27;86879;-84
2022/12/04 05:50:41;;;;;;;9.00;7.65;;;19.00;56.20;;;;;;5065703;27;87412;-86
2022/12/04 05:53:07;;;;;;;8.10;7.15;;;19.00;56.10;;;;;;5064758;27;88659;-85
2022/12/04 05:55:33;;;;;;;8.57;7.60;;;19.00;56.20;;;;;;5065132;27;87710;-85
2022/12/04 05:57:58;;;;;;;9.25;7.07;;;19.00;56.00;;;;;;5065257;27;88277;-86
2022/12/04 06:00:24;;;;;;;7.95;7.15;;;18.90;56.00;;;;;;5065525;27;87544;-85
2022/12/04 06:02:49;;;;;;;9.13;7.70;;;19.00;56.20;;;;;;5064432;27;88183;-85
2022/12/04 06:05:15;;;;;;;7.80;7.00;;;19.00;56.10;;;;;;5063842;27;88331;-85
2022/12/04 06:07:41;;;;;;;9.60;7.85;;;18.90;55.90;;;;;;5065635;27;86920;-85
2022/12/04 06:10:06;;;;;;;8.75;7.50;;;18.90;56.00;;;;;;5064441;27;87647;-85
2022/12/04 06:12:32;;;;;;;7.72;6.88;;;18.90;56.10;;;;;;5064836;27;88391;-85
2022/12/04 06:14:58;;;;;;;8.32;7.15;;;18.90;55.90;;;;;;5064514;27;88206;-86
2022/12/04 06:17:23;;;;;;;8.68;7.32;;;18.90;56.00;;;;;;5064594;27;87295;-86
2022/12/04 06:19:49;;;;;;;8.57;7.45;;;18.90;56.00;;;;;;5064627;27;87553;-85
2022/12/04 06:22:14;;;;;;;9.00;7.93;;;18.90;56.10;;;;;;5063966;27;90126;-85
2022/12/04 06:24:40;;;;;;;8.35;6.88;;;18.90;56.00;;;;;;5063956;27;89310;-86
2022/12/04 06:27:06;;;;;;;8.63;7.35;;;18.90;56.00;;;;;;5063287;27;86910;-86
2022/12/04 06:29:32;;;;;;;8.98;7.53;;;18.90;56.10;;;;;;5062415;27;87369;-85
2022/12/04 06:31:58;;;;;;;9.20;7.65;;;18.90;56.10;;;;;;5062818;27;88450;-86
2022/12/04 06:34:24;;;;;;;8.52;7.38;;;18.80;56.00;;;;;;5062014;27;87821;-86
2022/12/04 06:36:49;;;;;;;9.25;7.65;;;18.80;56.10;;;;;;5061581;27;87127;-86
2022/12/04 06:39:15;;;;;;;8.52;7.00;;;18.80;55.90;;;;;;5041783;27;89476;-86
2022/12/04 06:41:40;;;;;;;7.97;7.07;;;18.80;56.00;;;;;;5066687;27;88570;-86
2022/12/04 06:44:06;;;;;;;9.05;7.30;;;18.80;56.10;;;;;;5063348;27;87780;-87
2022/12/04 06:46:33;;;;;;;9.40;7.80;;;18.80;56.10;;;;;;5063399;27;88576;-86
2022/12/04 06:49:00;;;;;;;8.18;6.90;;;18.80;56.00;;;;;;5064296;27;87660;-86
2022/12/04 06:51:32;;;;;;;8.43;7.40;;;18.80;56.10;;;;;;5063865;27;89378;-87
2022/12/04 06:53:58;;;;;;;8.52;7.60;;;18.80;56.10;;;;;;5044891;27;91973;-87
2022/12/04 06:56:25;;;;;;;8.55;7.22;;;18.80;55.80;;;;;;5064114;27;88143;-86
2022/12/04 06:58:53;;;;;;;8.60;7.22;;;18.80;55.90;;;;;;5063595;27;87314;-87
2022/12/04 07:01:22;;;;;;;8.65;7.72;;;18.80;55.90;;;;;;5064205;27;87976;-89
2022/12/04 07:03:48;;;;;;;9.93;8.07;;;18.80;55.70;;;;;;5063984;27;88285;-88
2022/12/04 07:06:25;;;;;;;9.00;8.00;;;18.80;54.80;;;;;;5062579;27;87605;-86
2022/12/04 07:09:12;;;;;;;9.52;7.82;;;18.80;55.00;;;;;;5062938;27;87221;-88
2022/12/04 07:11:39;;;;;;;11.50;8.50;;;19.00;55.30;;;;;;5062629;27;90675;-88
2022/12/04 07:14:05;;;;;;;11.77;8.57;;;18.90;55.40;;;;;;5061564;27;89330;-88
2022/12/04 07:16:31;;;;;;;10.02;7.32;;;19.00;55.50;;;;;;5063099;27;86931;-88
2022/12/04 07:18:57;;;;;;;12.45;7.75;;;19.10;55.70;;;;;;5064569;27;87618;-88
2022/12/04 07:21:25;;;;;;;9.63;8.25;;;19.20;55.50;;;;;;5062428;27;88368;-87
2022/12/04 07:23:54;;;;;;;10.73;8.23;;;19.30;55.80;;;;;;5060669;27;88356;-87
2022/12/04 07:26:21;;;;;;;9.52;7.65;;;19.40;55.70;;;;;;5061506;27;87720;-87
2022/12/04 07:28:47;;;;;;;10.57;7.75;;;19.60;55.40;;;;;;5060367;27;86767;-88
2022/12/04 07:31:16;;;;;;;14.25;7.45;;;19.70;55.40;;;;;;5063163;27;89178;-87
2022/12/04 07:33:42;;;;;;;6.72;5.68;;;19.80;55.50;;;;;;5062939;27;88986;-86
2022/12/04 07:36:10;;;;;;;7.97;6.60;;;19.90;55.50;;;;;;5064054;27;88473;-87
2022/12/04 07:38:36;;;;;;;7.68;6.88;;;20.00;55.30;;;;;;5062855;27;87590;-87
2022/12/04 07:41:04;;;;;;;7.32;6.45;;;20.10;55.40;;;;;;5061761;27;88582;-86
2022/12/04 07:43:31;;;;;;;7.75;6.95;;;20.10;55.20;;;;;;5063340;27;87948;-87
2022/12/04 07:45:57;;;;;;;9.40;6.97;;;20.10;55.20;;;;;;5062771;27;86947;-89
2022/12/04 07:48:23;;;;;;;9.40;6.63;;;20.10;55.10;;;;;;5061577;27;90355;-88
2022/12/04 07:50:48;;;;;;;8.75;6.82;;;20.10;55.20;;;;;;5063102;27;90496;-88
2022/12/04 07:53:14;;;;;;;8.68;6.85;;;20.10;55.00;;;;;;5064456;27;88099;-88
2022/12/04 07:55:40;;;;;;;7.20;6.10;;;20.20;55.10;;;;;;5064016;27;86975;-88
2022/12/04 07:58:05;;;;;;;8.30;6.00;;;20.10;55.20;;;;;;5063717;27;87931;-88
2022/12/04 08:00:31;;;;;;;12.45;6.80;;;20.10;55.00;;;;;;5060697;27;88695;-88
2022/12/04 08:02:57;;;;;;;9.75;7.05;;;20.10;55.20;;;;;;5068838;27;87850;-87
2022/12/04 08:05:23;;;;;;;8.13;6.47;;;20.00;55.40;;;;;;5063983;27;87502;-86
2022/12/04 08:07:48;;;;;;;10.38;7.43;;;19.90;55.50;;;;;;5063712;27;87440;-87
2022/12/04 08:10:14;;;;;;;7.85;6.72;;;19.80;55.80;;;;;;5064825;27;88722;-88
2022/12/04 08:12:40;;;;;;;10.20;6.95;;;19.80;56.00;;;;;;5062331;27;87776;-87
2022/12/04 08:15:06;;;;;;;10.07;6.97;;;19.80;56.30;;;;;;5063415;27;87279;-88
2022/12/04 08:17:31;;;;;;;11.40;6.65;;;19.80;56.40;;;;;;5064308;27;87429;-87
2022/12/04 08:19:57;;;;;;;10.60;6.22;;;19.90;55.90;;;;;;5062127;27;87409;-89
2022/12/04 08:22:23;;;;;;;9.20;6.30;;;19.90;56.10;;;;;;5063470;27;88298;-88
2022/12/04 08:24:49;;;;;;;8.68;6.22;;;19.90;56.10;;;;;;5063172;27;88324;-87
2022/12/04 08:27:15;;;;;;;9.30;5.80;;;20.00;55.90;;;;;;5063545;27;87531;-88
2022/12/04 08:29:40;;;;;;;7.57;6.25;;;20.00;55.90;;;;;;5062577;27;88493;-88
2022/12/04 08:32:06;;;;;;;9.70;6.35;;;20.00;56.20;;;;;;5043484;27;89730;-88
2022/12/04 08:34:32;;;;;;;8.45;6.55;;;20.00;56.40;;;;;;5064536;27;87344;-87
2022/12/04 08:36:58;;;;;;;8.90;6.38;;;20.00;56.00;;;;;;5062864;27;87476;-90
2022/12/04 08:39:23;;;;;;;8.88;6.30;;;19.90;56.20;;;;;;5063339;27;89010;-87
2022/12/04 08:41:49;;;;;;;8.23;6.90;;;19.90;56.20;;;;;;5064744;27;88006;-88
2022/12/04 08:44:15;;;;;;;8.98;6.93;;;19.90;56.30;;;;;;5064995;27;87631;-88
2022/12/04 08:46:41;;;;;;;13.20;7.40;;;19.80;56.30;;;;;;5063233;27;87330;-87
2022/12/04 08:49:06;;;;;;;13.68;8.40;;;19.80;56.30;;;;;;5063027;27;89467;-87
2022/12/04 08:51:35;;;;;;;20.35;8.02;;;19.70;55.70;;;;;;5062700;27;89398;-87
2022/12/04 08:54:04;;;;;;;14.85;8.00;;;19.70;55.50;;;;;;5061626;27;87709;-88
2022/12/04 08:56:31;;;;;;;11.93;8.35;;;19.70;55.30;;;;;;5062746;27;87412;-88
2022/12/04 08:58:58;;;;;;;14.70;9.52;;;19.70;54.30;;;;;;5043020;27;91418;-89
2022/12/04 09:01:27;;;;;;;24.55;11.20;;;19.80;54.50;;;;;;5064513;27;87686;-88
2022/12/04 09:03:53;;;;;;;18.55;10.07;;;19.80;52.00;;;;;;5062076;27;87456;-87
2022/12/04 09:06:19;;;;;;;16.00;9.27;;;19.90;52.70;;;;;;5061893;27;86871;-86
2022/12/04 09:08:45;;;;;;;12.35;8.57;;;19.90;53.70;;;;;;5060408;27;88134;-86
2022/12/04 09:11:13;;;;;;;16.60;9.52;;;20.00;54.10;;;;;;5059490;27;88409;-85
2022/12/04 09:13:40;;;;;;;17.33;8.82;;;20.10;54.10;;;;;;5059668;27;88508;-87
2022/12/04 09:16:08;;;;;;;14.70;8.32;;;20.10;54.30;;;;;;5041422;27;92992;-87
2022/12/04 09:18:35;;;;;;;12.77;8.57;;;20.20;54.20;;;;;;5060034;27;88398;-85
2022/12/04 09:21:08;;;;;;;13.32;8.25;;;20.20;54.30;;;;;;5059843;27;88126;-86
2022/12/04 09:23:35;;;;;;;14.93;8.27;;;20.20;54.20;;;;;;5059034;27;87535;-86
2022/12/04 09:26:02;;;;;;;19.63;8.15;;;20.20;54.20;;;;;;5061437;27;87597;-86
2022/12/04 09:28:28;;;;;;;17.17;9.32;;;20.20;54.40;;;;;;5062381;27;88350;-87
2022/12/04 09:30:58;;;;;;;19.88;9.55;;;20.10;54.60;;;;;;5064742;27;92498;-87
2022/12/04 09:33:23;;;;;;;19.83;10.25;;;20.10;54.90;;;;;;5063698;27;87213;-87
2022/12/04 09:35:49;;;;;;;16.70;9.48;;;20.20;55.20;;;;;;5062673;27;87738;-85
2022/12/04 09:38:15;;;;;;;22.55;9.13;;;20.10;55.10;;;;;;5060924;27;90187;-84
2022/12/04 09:40:51;;;;;;;25.48;8.80;;;20.10;55.60;;;;;;5064208;27;87109;-89
2022/12/04 09:43:35;;;;;;;22.38;10.30;;;20.20;55.70;;;;;;5066679;27;87354;-86
2022/12/04 09:46:17;;;;;;;21.45;10.13;;;20.20;55.50;;;;;;5064632;27;89760;-88
2022/12/04 09:48:45;;;;;;;16.63;9.30;;;20.20;55.70;;;;;;5063638;27;88653;-87
2022/12/04 09:51:17;;;;;;;17.85;9.80;;;20.20;55.90;;;;;;5065695;27;88250;-86
2022/12/04 09:53:49;;;;;;;23.38;10.35;;;20.20;56.10;;;;;;5066197;27;87553;-85
2022/12/04 09:56:20;;;;;;;21.67;9.85;;;20.20;56.50;;;;;;5064943;27;87427;-86
2022/12/04 09:58:52;;;;;;;19.45;9.85;;;20.20;56.60;;;;;;5063003;27;88453;-86
2022/12/04 10:01:25;;;;;;;20.35;8.90;;;20.20;57.30;;;;;;5044476;27;90505;-86
2022/12/04 10:03:53;;;;;;;21.25;10.18;;;20.20;57.30;;;;;;5065096;27;88345;-88
2022/12/04 10:06:31;;;;;;;17.25;8.85;;;20.20;57.70;;;;;;5064435;27;87966;-87
2022/12/04 10:09:23;;;;;;;21.42;10.02;;;20.20;57.90;;;;;;5063485;27;87469;-86
2022/12/04 10:12:13;;;;;;;22.27;10.05;;;20.20;57.90;;;;;;5062806;27;88679;-86
2022/12/04 10:14:49;;;;;;;16.52;9.93;;;20.30;58.40;;;;;;5062502;27;87915;-90
2022/12/04 10:17:26;;;;;;;17.88;10.32;;;20.20;58.40;;;;;;5064047;27;87500;-88
2022/12/04 10:20:15;;;;;;;22.85;9.77;;;20.20;58.80;;;;;;5061738;27;87995;-87
2022/12/04 10:22:59;;;;;;;18.57;10.07;;;20.30;58.90;;;;;;5064811;27;88075;-86
2022/12/04 10:25:27;;;;;;;18.13;10.00;;;20.20;59.00;;;;;;5063957;27;87392;-87
2022/12/04 10:28:15;;;;;;;17.70;10.15;;;20.20;58.90;;;;;;5063944;27;87283;-89
2022/12/04 10:30:42;;;;;;;18.83;9.35;;;20.20;59.30;;;;;;5063200;27;88864;-87
2022/12/04 10:33:35;;;;;;;19.35;10.40;;;20.20;59.40;;;;;;5062303;27;89204;-88
2022/12/04 10:36:01;;;;;;;18.40;10.38;;;20.10;59.70;;;;;;5061979;27;87403;-86
2022/12/04 10:38:29;;;;;;;16.40;9.75;;;20.20;60.10;;;;;;5063950;27;90052;-86
2022/12/04 10:41:02;;;;;;;19.50;9.60;;;20.20;60.60;;;;;;5064264;27;88443;-86
2022/12/04 10:43:37;;;;;;;20.88;10.18;;;20.20;60.80;;;;;;5064202;27;87918;-87
2022/12/04 10:46:04;;;;;;;41.30;18.98;;;20.20;60.10;;;;;;5064007;27;87355;-88
2022/12/04 10:48:39;;;;;;;56.90;22.10;;;20.20;59.00;;;;;;5063157;27;88044;-87
2022/12/04 10:51:04;;;;;;;59.53;22.48;;;20.10;58.60;;;;;;5060672;27;87447;-86
2022/12/04 10:53:34;;;;;;;53.38;23.38;;;20.10;58.50;;;;;;5061070;27;90045;-86
2022/12/04 10:56:22;;;;;;;53.45;21.88;;;20.10;55.80;;;;;;5062901;27;87807;-86
2022/12/04 10:59:14;;;;;;;43.85;19.65;;;20.10;57.40;;;;;;5063068;27;87355;-87
2022/12/04 11:01:40;;;;;;;50.22;19.10;;;20.10;58.20;;;;;;4976581;28;87033;-86
2022/12/04 11:04:17;;;;;;;35.75;17.38;;;20.10;57.70;;;;;;4978114;28;88102;-85
2022/12/04 11:06:43;;;;;;;35.45;17.60;;;20.10;57.40;;;;;;4976852;28;88253;-86
2022/12/04 11:09:21;;;;;;;36.90;17.00;;;20.10;55.90;;;;;;4976948;28;87713;-86
2022/12/04 11:11:47;;;;;;;35.83;17.02;;;20.10;56.50;;;;;;4976758;28;88768;-85
2022/12/04 11:14:16;;;;;;;33.63;16.30;;;20.10;56.60;;;;;;4976147;28;88362;-87
2022/12/04 11:16:45;;;;;;;35.25;16.35;;;20.10;57.70;;;;;;4976746;28;87768;-86
2022/12/04 11:19:23;;;;;;;32.83;16.67;;;20.10;58.20;;;;;;4978266;28;88661;-86
2022/12/04 11:21:49;;;;;;;30.75;15.90;;;20.10;59.00;;;;;;4976683;28;89697;-87
2022/12/04 11:24:31;;;;;;;31.92;17.70;;;20.10;59.70;;;;;;4976243;28;88207;-86
2022/12/04 11:26:57;;;;;;;36.20;17.20;;;20.10;60.20;;;;;;4979556;28;87308;-87
2022/12/04 11:29:41;;;;;;;32.80;16.27;;;20.10;60.20;;;;;;4976379;28;87619;-86
2022/12/04 11:32:16;;;;;;;26.98;14.63;;;20.10;57.40;;;;;;4977660;28;89061;-84
2022/12/04 11:34:44;;;;;;;27.27;15.48;;;20.10;58.30;;;;;;4976264;28;88602;-87
2022/12/04 11:37:24;;;;;;;25.33;15.10;;;20.10;58.60;;;;;;4976450;28;87443;-85
2022/12/04 11:39:50;;;;;;;37.70;16.42;;;20.20;58.00;;;;;;5059371;27;86705;-87
2022/12/04 11:42:22;;;;;;;29.10;14.57;;;20.10;58.30;;;;;;5060410;27;88046;-86
2022/12/04 11:44:54;;;;;;;23.48;14.82;;;20.20;57.30;;;;;;5060018;27;88332;-92
2022/12/04 11:47:22;;;;;;;25.20;14.35;;;20.20;56.70;;;;;;5060197;27;88282;-87
2022/12/04 11:50:10;;;;;;;28.63;15.40;;;20.10;53.90;;;;;;5056144;27;87499;-86
2022/12/04 11:53:06;;;;;;;25.42;14.00;;;20.10;55.70;;;;;;5059630;27;88827;-92
2022/12/04 11:55:50;;;;;;;23.67;12.52;;;20.00;56.40;;;;;;5041402;27;91346;-86
2022/12/04 11:58:43;;;;;;;22.50;13.27;;;20.10;55.80;;;;;;5060080;27;87428;-87
2022/12/04 12:01:33;;;;;;;21.90;13.07;;;20.10;56.10;;;;;;5059597;27;91062;-85
2022/12/04 12:04:51;;;;;;;23.08;12.27;;;20.10;56.50;;;;;;5060931;27;92911;-87
2022/12/04 12:07:54;;;;;;;24.30;12.95;;;20.20;56.50;;;;;;4988500;28;92062;-86
2022/12/04 12:10:52;;;;;;;25.30;12.07;;;20.30;56.50;;;;;;4989272;28;88794;-86
2022/12/04 12:13:43;;;;;;;16.80;10.37;;;20.40;56.30;;;;;;4988126;28;91033;-86
2022/12/04 12:16:23;;;;;;;19.15;11.38;;;20.50;55.80;;;;;;4942994;28;93508;-85
2022/12/04 12:19:10;;;;;;;19.60;10.25;;;20.60;55.90;;;;;;4987417;28;89812;-85
2022/12/04 12:21:42;;;;;;;21.17;11.02;;;20.60;56.10;;;;;;4989432;28;87445;-85
2022/12/04 12:24:07;;;;;;;21.70;10.73;;;20.70;56.10;;;;;;4988181;28;87703;-86
2022/12/04 12:27:05;;;;;;;21.05;10.75;;;20.70;55.30;;;;;;4988744;28;88106;-85
2022/12/04 12:30:13;;;;;;;23.67;11.98;;;20.70;55.30;;;;;;4898521;28;87949;-86
2022/12/04 12:32:47;;;;;;;19.77;10.27;;;20.60;54.80;;;;;;4891403;28;87861;-85
2022/12/04 12:35:43;;;;;;;21.92;10.57;;;20.50;55.20;;;;;;4899296;28;87458;-86
2022/12/04 12:38:15;;;;;;;25.35;10.38;;;20.50;55.60;;;;;;4833338;29;87724;-85
2022/12/04 12:40:51;;;;;;;19.35;10.68;;;20.50;55.80;;;;;;4833101;29;88783;-86
2022/12/04 12:43:35;;;;;;;22.83;10.63;;;20.50;56.40;;;;;;4846477;28;88362;-86
2022/12/04 12:46:05;;;;;;;22.33;10.88;;;20.40;56.00;;;;;;4888074;28;91843;-85
2022/12/04 12:48:34;;;;;;;21.23;10.15;;;20.30;56.20;;;;;;4887850;28;88304;-85
2022/12/04 12:51:33;;;;;;;19.87;10.27;;;20.30;56.60;;;;;;4886472;28;88389;-86
2022/12/04 12:54:22;;;;;;;14.90;9.98;;;20.30;56.90;;;;;;4887994;28;87655;-84
2022/12/04 12:57:01;;;;;;;18.23;8.37;;;20.40;56.90;;;;;;4887581;28;87571;-86
2022/12/04 12:59:27;;;;;;;;;;;20.60;53.40;;;;;;4888145;28;90041;-86
2022/12/04 13:04:48;;;;;;;14.85;7.97;;;20.80;48.90;;;;;;4911600;28;87601;-85
2022/12/04 13:07:16;;;;;;;14.50;9.63;;;20.80;49.30;;;;;;4960056;28;87042;-85
2022/12/04 13:09:51;;;;;;;14.35;9.00;;;20.80;51.50;;;;;;4960388;28;88435;-87
2022/12/04 13:12:19;;;;;;;17.83;9.35;;;20.70;52.70;;;;;;4960211;28;89234;-86
2022/12/04 13:14:44;;;;;;;18.58;9.57;;;20.70;53.30;;;;;;4996688;27;88356;-86
2022/12/04 13:17:19;;;;;;;20.98;9.00;;;20.70;53.40;;;;;;5045639;27;90030;-89